createdAt,value
2018-06-03T00:01:59.091Z,99.90
2018-06-03T00:04:27.517Z,99.90
2018-06-03T00:06:55.941Z,99.90
2018-06-03T00:09:24.358Z,99.90
2018-06-03T00:11:52.782Z,99.90
2018-06-03T00:14:21.193Z,99.90
2018-06-03T00:16:49.624Z,99.90
2018-06-03T00:19:18.033Z,99.90
2018-06-03T00:21:51.489Z,99.90
2018-06-03T00:24:19.905Z,99.90
2018-06-03T00:26:48.333Z,99.90
2018-06-03T00:29:16.761Z,99.90
2018-06-03T00:31:45.189Z,99.90
2018-06-03T00:34:13.635Z,99.90
2018-06-03T00:36:45.721Z,99.90
2018-06-03T00:39:14.137Z,99.90
2018-06-03T00:41:42.577Z,99.90
2018-06-03T00:44:11.002Z,99.90
2018-06-03T00:46:39.421Z,99.90
2018-06-03T00:49:07.833Z,99.90
2018-06-03T00:51:36.255Z,99.90
2018-06-03T00:54:04.700Z,99.90
2018-06-03T00:56:44.376Z,99.90
2018-06-03T00:59:12.789Z,99.90
2018-06-03T01:01:41.197Z,99.90
2018-06-03T01:04:09.617Z,99.90
2018-06-03T01:06:39.041Z,99.90
2018-06-03T01:09:07.514Z,99.90
2018-06-03T01:11:35.912Z,99.90
2018-06-03T01:14:04.461Z,99.90
2018-06-03T01:16:32.873Z,99.90
2018-06-03T01:21:29.397Z,99.90
2018-06-03T01:23:57.841Z,99.90
2018-06-03T01:26:26.255Z,99.90
2018-06-03T01:28:54.673Z,99.90
2018-06-03T01:33:51.221Z,99.90
2018-06-03T01:38:47.733Z,99.90
2018-06-03T01:41:16.181Z,99.90
2018-06-03T01:43:44.647Z,99.90
2018-06-03T01:46:13.053Z,99.90
2018-06-03T01:48:41.504Z,99.90
2018-06-03T01:51:09.912Z,99.90
2018-06-03T01:53:38.325Z,99.90
2018-06-03T01:58:34.884Z,99.90
2018-06-03T02:03:31.416Z,99.90
2018-06-03T02:05:59.851Z,99.90
2018-06-03T02:08:28.262Z,99.90
2018-06-03T02:10:56.690Z,99.90
2018-06-03T02:13:25.102Z,99.90
2018-06-03T02:15:53.525Z,99.90
2018-06-03T02:20:50.073Z,99.90
2018-06-03T02:25:46.629Z,99.90
2018-06-03T02:28:15.048Z,99.90
2018-06-03T02:30:43.522Z,99.90
2018-06-03T02:33:11.921Z,99.90
2018-06-03T02:35:40.329Z,99.90
2018-06-03T02:38:08.753Z,99.90
2018-06-03T02:40:37.166Z,99.90
2018-06-03T02:43:05.809Z,99.90
2018-06-03T02:45:34.261Z,99.90
2018-06-03T02:48:02.697Z,99.90
2018-06-03T02:50:31.118Z,99.90
2018-06-03T02:53:00.499Z,99.90
2018-06-03T02:57:57.048Z,99.90
2018-06-03T03:00:25.460Z,99.90
2018-06-03T03:02:53.877Z,99.90
2018-06-03T03:05:22.281Z,99.90
2018-06-03T03:07:50.834Z,99.90
2018-06-03T03:10:19.240Z,99.90
2018-06-03T03:15:15.771Z,99.90
2018-06-03T03:17:44.197Z,99.90
2018-06-03T03:20:12.605Z,99.90
2018-06-03T03:22:41.021Z,99.90
2018-06-03T03:25:09.465Z,99.90
2018-06-03T03:27:37.879Z,99.90
2018-06-03T03:30:06.378Z,99.90
2018-06-03T03:32:34.798Z,99.90
2018-06-03T03:35:03.247Z,99.90
2018-06-03T03:37:31.669Z,99.90
2018-06-03T03:40:00.086Z,99.90
2018-06-03T03:42:28.503Z,99.90
2018-06-03T03:44:56.978Z,99.90
2018-06-03T03:47:25.390Z,99.90
2018-06-03T03:49:53.813Z,99.90
2018-06-03T03:52:22.229Z,99.90
2018-06-03T03:54:50.653Z,99.90
2018-06-03T03:59:47.186Z,99.90
2018-06-03T04:04:43.758Z,99.90
2018-06-03T04:07:12.177Z,99.90
2018-06-03T04:09:40.589Z,99.90
2018-06-03T04:12:09.006Z,99.90
2018-06-03T04:14:37.409Z,99.90
2018-06-03T04:17:05.862Z,99.90
2018-06-03T04:19:34.270Z,99.90
2018-06-03T04:22:02.704Z,99.90
2018-06-03T04:24:31.122Z,99.90
2018-06-03T04:26:59.541Z,99.90
2018-06-03T04:31:56.085Z,99.90
2018-06-03T04:34:24.494Z,99.90
2018-06-03T04:36:52.924Z,99.90
2018-06-03T04:39:21.389Z,99.90
2018-06-03T04:41:49.817Z,99.90
2018-06-03T04:46:46.412Z,99.90
2018-06-03T04:49:14.841Z,99.90
2018-06-03T04:54:11.366Z,99.90
2018-06-03T04:56:39.773Z,99.90
2018-06-03T04:59:08.201Z,99.90
2018-06-03T05:01:36.606Z,99.90
2018-06-03T05:04:05.093Z,99.90
2018-06-03T05:09:01.656Z,99.90
2018-06-03T05:13:58.164Z,99.90
2018-06-03T05:16:26.565Z,99.90
2018-06-03T05:18:54.996Z,99.90
2018-06-03T05:21:23.433Z,99.90
2018-06-03T05:23:51.877Z,99.90
2018-06-03T05:26:20.284Z,99.90
2018-06-03T05:31:16.818Z,99.90
2018-06-03T05:33:45.237Z,99.90
2018-06-03T05:36:13.672Z,99.90
2018-06-03T05:38:42.129Z,99.90
2018-06-03T05:41:10.549Z,99.90
2018-06-03T05:43:38.961Z,99.90
2018-06-03T05:46:07.417Z,99.90
2018-06-03T05:48:35.845Z,99.90
2018-06-03T05:51:04.281Z,99.90
2018-06-03T05:53:32.690Z,99.90
2018-06-03T05:56:01.120Z,99.90
2018-06-03T05:58:29.530Z,99.90
2018-06-03T06:00:57.998Z,99.90
2018-06-03T06:03:26.405Z,99.90
2018-06-03T06:05:54.827Z,99.90
2018-06-03T06:10:51.370Z,99.90
2018-06-03T06:13:19.797Z,99.90
2018-06-03T06:15:48.208Z,99.90
2018-06-03T06:18:16.637Z,99.90
2018-06-03T06:20:45.057Z,99.90
2018-06-03T06:23:13.485Z,99.90
2018-06-03T06:25:41.897Z,99.90
2018-06-03T06:28:10.316Z,99.90
2018-06-03T06:30:38.741Z,99.90
2018-06-03T06:33:07.157Z,99.90
2018-06-03T06:35:35.597Z,99.90
2018-06-03T06:38:04.057Z,99.90
2018-06-03T06:40:32.466Z,99.90
2018-06-03T06:43:00.897Z,99.90
2018-06-03T06:45:29.369Z,99.90
2018-06-03T06:47:57.817Z,99.90
2018-06-03T06:50:26.337Z,99.90
2018-06-03T06:52:54.757Z,99.90
2018-06-03T06:55:23.219Z,99.90
2018-06-03T06:57:51.621Z,99.90
2018-06-03T07:00:20.046Z,99.90
2018-06-03T07:02:48.459Z,99.90
2018-06-03T07:05:16.882Z,99.90
2018-06-03T07:07:45.301Z,99.90
2018-06-03T07:10:13.701Z,99.90
2018-06-03T07:12:42.135Z,99.90
2018-06-03T07:15:10.541Z,99.90
2018-06-03T07:17:38.949Z,99.90
2018-06-03T07:20:07.377Z,99.90
2018-06-03T07:22:35.784Z,99.90
2018-06-03T07:25:04.286Z,99.90
2018-06-03T07:27:32.705Z,99.90
2018-06-03T07:32:29.230Z,99.90
2018-06-03T07:34:57.645Z,99.90
2018-06-03T07:37:26.078Z,99.90
2018-06-03T07:39:54.539Z,99.90
2018-06-03T07:42:29.641Z,99.90
2018-06-03T07:44:58.058Z,99.90
2018-06-03T07:47:26.474Z,99.90
2018-06-03T07:49:54.921Z,99.90
2018-06-03T07:52:23.334Z,99.90
2018-06-03T07:54:51.761Z,99.90
2018-06-03T07:57:20.947Z,99.90
2018-06-03T07:59:49.351Z,99.90
2018-06-03T08:02:17.781Z,99.90
2018-06-03T08:04:46.199Z,99.90
2018-06-03T08:07:14.637Z,99.90
2018-06-03T08:09:43.073Z,99.90
2018-06-03T08:12:11.479Z,99.90
2018-06-03T08:17:08.002Z,96.30
2018-06-03T08:19:36.437Z,95.40
2018-06-03T08:22:04.873Z,92.30
2018-06-03T08:24:33.270Z,90.10
2018-06-03T08:29:29.814Z,86.50
2018-06-03T08:34:26.333Z,90.90
2018-06-03T08:36:54.742Z,89.50
2018-06-03T08:41:51.281Z,77.90
2018-06-03T08:46:47.862Z,87.20
2018-06-03T08:49:16.265Z,88.90
2018-06-03T08:51:44.697Z,91.10
2018-06-03T08:56:41.244Z,87.70
2018-06-03T09:01:37.752Z,75.70
2018-06-03T09:04:06.342Z,76.20
2018-06-03T09:06:34.824Z,79.00
2018-06-03T09:09:03.629Z,73.10
2018-06-03T09:14:00.161Z,73.50
2018-06-03T09:16:28.581Z,79.80
2018-06-03T09:18:56.997Z,76.20
2018-06-03T09:21:25.434Z,67.90
2018-06-03T09:23:53.860Z,70.50
2018-06-03T09:26:22.285Z,68.80
2018-06-03T09:31:18.833Z,82.30
2018-06-03T09:33:47.274Z,92.20
2018-06-03T09:36:15.685Z,96.00
2018-06-03T09:41:12.229Z,93.70
2018-06-03T09:43:40.669Z,95.80
2018-06-03T09:46:09.131Z,93.10
2018-06-03T09:48:37.601Z,95.10
2018-06-03T09:51:06.015Z,96.60
2018-06-03T09:53:34.461Z,97.70
2018-06-03T09:56:02.873Z,97.60
2018-06-03T09:58:31.370Z,98.30
2018-06-03T10:00:59.784Z,97.10
2018-06-03T10:03:28.214Z,97.40
2018-06-03T10:05:56.689Z,97.90
2018-06-03T10:08:25.124Z,97.30
2018-06-03T10:10:53.573Z,95.80
2018-06-03T10:13:21.997Z,94.60
2018-06-03T10:15:50.437Z,94.40
2018-06-03T10:18:18.908Z,95.80
2018-06-03T10:20:47.329Z,94.70
2018-06-03T10:23:15.778Z,97.80
2018-06-03T10:25:44.209Z,95.80
2018-06-03T10:28:12.622Z,98.70
2018-06-03T10:33:09.161Z,94.30
2018-06-03T10:38:06.631Z,86.30
2018-06-03T10:40:35.057Z,77.20
2018-06-03T10:43:03.514Z,82.40
2018-06-03T10:45:31.925Z,87.10
2018-06-03T10:48:00.373Z,87.70
2018-06-03T10:50:28.782Z,90.00
2018-06-03T10:52:57.203Z,88.90
2018-06-03T10:55:25.647Z,91.20
2018-06-03T10:57:54.070Z,93.00
2018-06-03T11:00:22.535Z,93.80
2018-06-03T11:02:50.976Z,94.60
2018-06-03T11:05:19.414Z,92.90
2018-06-03T11:07:47.848Z,90.60
2018-06-03T11:10:16.274Z,78.80
2018-06-03T11:12:45.074Z,69.10
2018-06-03T11:15:13.505Z,63.60
2018-06-03T11:17:41.922Z,60.40
2018-06-03T11:20:10.358Z,54.50
2018-06-03T11:22:38.781Z,62.70
2018-06-03T11:25:07.241Z,67.50
2018-06-03T11:30:04.677Z,74.00
2018-06-03T11:32:33.112Z,74.80
2018-06-03T11:35:01.531Z,76.20
2018-06-03T11:37:29.990Z,80.70
2018-06-03T11:39:58.407Z,80.10
2018-06-03T11:44:54.983Z,83.30
2018-06-03T11:47:23.401Z,90.10
2018-06-03T11:49:51.853Z,87.60
2018-06-03T11:52:20.276Z,89.70
2018-06-03T11:54:48.693Z,90.00
2018-06-03T11:57:17.137Z,90.60
2018-06-03T11:59:45.945Z,92.20
2018-06-03T12:02:15.917Z,92.90
2018-06-03T12:04:44.386Z,89.20
2018-06-03T12:07:12.869Z,90.50
2018-06-03T12:09:41.331Z,88.20
2018-06-03T12:12:09.773Z,89.80
2018-06-03T12:17:06.323Z,77.70
2018-06-03T12:22:02.886Z,74.90
2018-06-03T12:27:05.908Z,72.80
2018-06-03T12:29:34.389Z,80.70
2018-06-03T12:32:02.829Z,79.40
2018-06-03T12:34:31.262Z,84.60
2018-06-03T12:36:59.681Z,86.40
2018-06-03T12:39:28.119Z,88.20
2018-06-03T12:41:56.584Z,90.50
2018-06-03T12:44:25.021Z,90.40
2018-06-03T12:49:21.897Z,91.60
2018-06-03T12:51:50.338Z,86.30
2018-06-03T12:54:18.774Z,82.50
2018-06-03T12:56:47.251Z,84.50
2018-06-03T12:59:15.677Z,83.50
2018-06-03T13:01:44.103Z,79.10
2018-06-03T13:04:12.529Z,81.30
2018-06-03T13:06:40.969Z,83.50
2018-06-03T13:09:09.413Z,82.20
2018-06-03T13:14:05.932Z,82.10
2018-06-03T13:16:34.382Z,84.80
2018-06-03T13:19:02.812Z,74.40
2018-06-03T13:21:31.269Z,75.90
2018-06-03T13:23:59.677Z,74.70
2018-06-03T13:28:56.241Z,65.40
2018-06-03T13:31:24.676Z,69.40
2018-06-03T13:33:53.112Z,68.40
2018-06-03T13:36:21.553Z,67.90
2018-06-03T13:38:49.969Z,66.00
2018-06-03T13:41:18.434Z,68.60
2018-06-03T13:43:46.842Z,71.40
2018-06-03T13:46:15.334Z,65.00
2018-06-03T13:48:43.753Z,69.90
2018-06-03T13:53:40.297Z,74.40
2018-06-03T13:56:08.721Z,72.90
2018-06-03T13:58:37.179Z,75.10
2018-06-03T14:01:05.685Z,73.80
2018-06-03T14:03:34.121Z,72.60
2018-06-03T14:06:02.581Z,71.80
2018-06-03T14:08:31.010Z,74.50
2018-06-03T14:10:59.482Z,73.90
2018-06-03T14:13:27.901Z,77.30
2018-06-03T14:15:56.321Z,78.10
2018-06-03T14:18:24.749Z,79.90
2018-06-03T14:20:53.185Z,81.00
2018-06-03T14:23:21.629Z,78.90
2018-06-03T14:25:50.050Z,75.90
2018-06-03T14:28:18.498Z,79.50
2018-06-03T14:33:15.080Z,83.50
2018-06-03T14:35:43.544Z,86.50
2018-06-03T14:38:11.981Z,90.30
2018-06-03T14:40:40.449Z,92.20
2018-06-03T14:43:08.905Z,91.10
2018-06-03T14:45:37.387Z,92.50
2018-06-03T14:48:05.876Z,94.00
2018-06-03T14:50:34.314Z,94.80
2018-06-03T14:55:30.866Z,92.80
2018-06-03T14:57:59.277Z,92.70
2018-06-03T15:00:27.713Z,91.20
2018-06-03T15:02:56.138Z,91.20
2018-06-03T15:07:52.705Z,89.70
2018-06-03T15:10:21.119Z,87.20
2018-06-03T15:12:49.553Z,87.60
2018-06-03T15:15:17.969Z,91.00
2018-06-03T15:17:46.397Z,91.50
2018-06-03T15:22:43.284Z,90.70
2018-06-03T15:25:11.767Z,87.80
2018-06-03T15:27:40.189Z,87.40
2018-06-03T15:30:08.643Z,85.90
2018-06-03T15:32:37.084Z,87.20
2018-06-03T15:35:05.506Z,87.80
2018-06-03T15:40:02.053Z,90.90
2018-06-03T15:42:30.501Z,91.10
2018-06-03T15:44:58.930Z,92.10
2018-06-03T15:47:27.345Z,91.10
2018-06-03T15:49:55.778Z,91.30
2018-06-03T15:54:52.309Z,90.70
2018-06-03T15:57:20.742Z,91.00
2018-06-03T15:59:49.177Z,91.60
2018-06-03T16:02:17.641Z,91.30
2018-06-03T16:04:46.049Z,92.10
2018-06-03T16:07:15.485Z,94.20
2018-06-03T16:09:43.938Z,95.10
2018-06-03T16:12:12.362Z,94.20
2018-06-03T16:14:40.834Z,94.80
2018-06-03T16:17:09.278Z,94.60
2018-06-03T16:19:37.693Z,95.30
2018-06-03T16:22:06.155Z,95.20
2018-06-03T16:24:34.891Z,95.80
2018-06-03T16:27:03.327Z,95.30
2018-06-03T16:29:31.747Z,93.30
2018-06-03T16:32:00.156Z,93.20
2018-06-03T16:34:28.582Z,93.60
2018-06-03T16:36:56.990Z,94.80
2018-06-03T16:39:25.431Z,93.40
2018-06-03T16:41:53.889Z,94.50
2018-06-03T16:44:22.334Z,94.20
2018-06-03T16:46:50.769Z,93.50
2018-06-03T16:49:19.265Z,94.20
2018-06-03T16:51:47.807Z,95.50
2018-06-03T16:54:16.225Z,95.40
2018-06-03T16:56:44.645Z,93.70
2018-06-03T16:59:13.201Z,93.30
2018-06-03T17:01:41.646Z,93.40
2018-06-03T17:04:10.099Z,93.40
2018-06-03T17:06:38.545Z,92.80
2018-06-03T17:09:07.402Z,91.80
2018-06-03T17:14:04.047Z,94.70
2018-06-03T17:16:32.508Z,95.30
2018-06-03T17:19:00.951Z,94.80
2018-06-03T17:21:29.377Z,95.00
2018-06-03T17:23:57.825Z,95.20
2018-06-03T17:26:26.254Z,95.30
2018-06-03T17:28:54.706Z,96.80
2018-06-03T17:31:23.133Z,96.10
2018-06-03T17:33:51.648Z,96.40
2018-06-03T17:36:20.083Z,97.00
2018-06-03T17:38:48.500Z,97.20
2018-06-03T17:41:16.951Z,98.80
2018-06-03T17:43:45.387Z,99.90
2018-06-03T17:46:13.826Z,99.90
2018-06-03T17:48:42.260Z,99.90
2018-06-03T17:51:10.668Z,99.90
2018-06-03T17:53:39.149Z,99.90
2018-06-03T17:56:07.553Z,99.90
2018-06-03T17:58:36.003Z,99.90
2018-06-03T18:01:04.442Z,99.90
2018-06-03T18:03:32.869Z,99.90
2018-06-03T18:06:01.346Z,99.90
2018-06-03T18:08:29.779Z,99.90
2018-06-03T18:13:26.358Z,99.80
2018-06-03T18:15:54.788Z,99.90
2018-06-03T18:18:23.244Z,99.90
2018-06-03T18:20:51.673Z,99.90
2018-06-03T18:23:20.094Z,99.90
2018-06-03T18:25:48.572Z,99.90
2018-06-03T18:28:17.012Z,99.90
2018-06-03T18:30:45.456Z,99.90
2018-06-03T18:33:13.875Z,99.90
2018-06-03T18:35:42.293Z,99.90
2018-06-03T18:38:10.730Z,99.90
2018-06-03T18:40:39.162Z,99.90
2018-06-03T18:43:07.604Z,99.90
2018-06-03T18:45:36.062Z,99.90
2018-06-03T18:48:04.601Z,99.90
2018-06-03T18:50:33.322Z,99.90
2018-06-03T18:53:01.738Z,99.90
2018-06-03T18:55:30.182Z,99.90
2018-06-03T18:57:58.649Z,99.90
2018-06-03T19:02:55.597Z,99.90
2018-06-03T19:05:24.795Z,99.90
2018-06-03T19:07:53.253Z,99.90
2018-06-03T19:10:21.696Z,99.90
2018-06-03T19:12:50.569Z,99.90
2018-06-03T19:15:18.997Z,99.90
2018-06-03T19:17:47.449Z,99.90
2018-06-03T19:20:15.896Z,99.90
2018-06-03T19:22:44.329Z,99.90
2018-06-03T19:25:12.786Z,99.90
2018-06-03T19:27:41.224Z,99.90
2018-06-03T19:32:37.775Z,99.90
2018-06-03T19:35:06.223Z,99.90
2018-06-03T19:37:34.662Z,99.90
2018-06-03T19:40:03.148Z,99.90
2018-06-03T19:42:31.585Z,99.90
2018-06-03T19:52:24.802Z,99.90
2018-06-03T19:54:53.245Z,99.90
2018-06-03T19:57:21.650Z,99.90
2018-06-03T19:59:50.121Z,99.90
2018-06-03T20:04:47.561Z,99.90
2018-06-03T20:07:16.005Z,99.90
2018-06-03T20:09:44.517Z,99.90
2018-06-03T20:12:12.997Z,99.90
2018-06-03T20:14:41.381Z,99.90
2018-06-03T20:17:09.869Z,99.90
2018-06-03T20:19:38.323Z,99.90
2018-06-03T20:22:06.780Z,99.90
2018-06-03T20:24:35.260Z,99.90
2018-06-03T20:27:03.699Z,99.90
2018-06-03T20:32:00.259Z,99.90
2018-06-03T20:34:28.693Z,99.90
2018-06-03T20:36:57.127Z,99.90
2018-06-03T20:39:25.604Z,99.90
2018-06-03T20:41:54.037Z,99.90
2018-06-03T20:44:22.705Z,99.90
2018-06-03T20:46:51.333Z,99.90
2018-06-03T20:51:47.980Z,99.90
2018-06-03T20:54:16.465Z,99.90
2018-06-03T20:59:13.074Z,99.90
2018-06-03T21:01:41.587Z,99.90
2018-06-03T21:04:10.053Z,99.90
2018-06-03T21:06:38.513Z,99.90
2018-06-03T21:09:08.269Z,99.90
2018-06-03T21:11:36.781Z,99.90
2018-06-03T21:14:05.257Z,99.90
2018-06-03T21:16:33.731Z,99.90
2018-06-03T21:19:02.171Z,99.90
2018-06-03T21:21:30.590Z,99.90
2018-06-03T21:23:59.068Z,99.90
2018-06-03T21:26:27.501Z,99.90
2018-06-03T21:33:52.369Z,99.90
2018-06-03T21:36:20.866Z,99.90
2018-06-03T21:38:49.307Z,99.90
2018-06-03T21:41:17.752Z,99.90
2018-06-03T21:43:46.249Z,99.90
2018-06-03T21:46:14.724Z,99.90
2018-06-03T21:48:43.148Z,99.90
2018-06-03T21:51:11.641Z,99.90
2018-06-03T21:53:40.129Z,99.90
2018-06-03T21:56:08.557Z,99.90
2018-06-03T21:58:37.027Z,99.90
2018-06-03T22:03:33.623Z,99.90
2018-06-03T22:06:02.113Z,99.90
2018-06-03T22:08:30.617Z,99.90
2018-06-03T22:10:59.060Z,99.90
2018-06-03T22:13:27.477Z,99.90
2018-06-03T22:15:56.134Z,99.90
2018-06-03T22:18:24.557Z,99.90
2018-06-03T22:23:21.104Z,99.90
2018-06-03T22:28:17.665Z,99.90
2018-06-03T22:33:14.219Z,99.90
2018-06-03T22:35:42.678Z,99.90
2018-06-03T22:38:11.129Z,99.90
2018-06-03T22:40:39.565Z,99.90
2018-06-03T22:43:07.981Z,99.90
2018-06-03T22:45:36.433Z,99.90
2018-06-03T22:48:04.857Z,99.90
2018-06-03T22:50:33.329Z,99.90
2018-06-03T22:53:01.769Z,99.90
2018-06-03T22:55:30.217Z,99.90
2018-06-03T23:00:33.013Z,99.90
2018-06-03T23:03:06.878Z,99.90
2018-06-03T23:05:35.593Z,99.90
2018-06-03T23:08:04.101Z,99.90
2018-06-03T23:10:32.528Z,99.90
2018-06-03T23:13:00.985Z,99.90
2018-06-03T23:15:29.429Z,99.90
2018-06-03T23:17:58.008Z,99.90
2018-06-03T23:20:26.448Z,99.90
2018-06-03T23:22:54.883Z,99.90
2018-06-03T23:25:23.318Z,99.90
2018-06-03T23:27:51.769Z,99.90
2018-06-03T23:30:20.198Z,99.90
2018-06-03T23:32:48.634Z,99.90
2018-06-03T23:35:17.085Z,99.90
2018-06-03T23:37:45.513Z,99.90
2018-06-03T23:40:14.302Z,99.90
2018-06-03T23:42:42.750Z,99.90
2018-06-03T23:45:11.156Z,99.90
2018-06-03T23:47:39.597Z,99.90
2018-06-03T23:50:08.045Z,99.90
2018-06-03T23:52:36.469Z,99.90
2018-06-03T23:55:04.947Z,99.90
2018-06-03T23:57:33.390Z,99.90
